<?xml version='1.0' encoding='UTF-8'?><gpx version="1.1" creator="JPX - https://github.com/jenetics/jpx" xmlns="http://www.topografix.com/GPX/1/1"><trk><trkseg><trkpt lat="41.9613383" lon="13.5363434"><ele>666.0</ele><time>2026-04-03T18:21:11.07Z</time></trkpt><trkpt lat="41.9612977" lon="13.53641"><ele>666.0</ele><time>2026-04-03T18:21:17.069Z</time></trkpt><trkpt lat="41.9612465" lon="13.5364793"><ele>666.0</ele><time>2026-04-03T18:21:23.07Z</time></trkpt><trkpt lat="41.961224" lon="13.5365611"><ele>666.0</ele><time>2026-04-03T18:21:28.071Z</time></trkpt><trkpt lat="41.9612134" lon="13.5366504"><ele>666.0</ele><time>2026-04-03T18:21:34Z</time></trkpt><trkpt lat="41.961212" lon="13.5367403"><ele>666.0</ele><time>2026-04-03T18:21:40.069Z</time></trkpt><trkpt lat="41.9612137" lon="13.5368361"><ele>666.0</ele><time>2026-04-03T18:21:46.073Z</time></trkpt><trkpt lat="41.961213" lon="13.5369342"><ele>666.0</ele><time>2026-04-03T18:21:52.061Z</time></trkpt><trkpt lat="41.9612196" lon="13.5370189"><ele>666.0</ele><time>2026-04-03T18:21:59.07Z</time></trkpt><trkpt lat="41.9612114" lon="13.537112"><ele>666.0</ele><time>2026-04-03T18:22:06.061Z</time></trkpt><trkpt lat="41.961203" lon="13.537201"><ele>666.0</ele><time>2026-04-03T18:22:12.07Z</time></trkpt><trkpt lat="41.9611471" lon="13.5372437"><ele>666.0</ele><time>2026-04-03T18:22:19.069Z</time></trkpt><trkpt lat="41.9610847" lon="13.5372137"><ele>666.0</ele><time>2026-04-03T18:22:24.088Z</time></trkpt><trkpt lat="41.9610237" lon="13.5371858"><ele>666.0</ele><time>2026-04-03T18:22:30.138Z</time></trkpt><trkpt lat="41.9609513" lon="13.5371833"><ele>666.0</ele><time>2026-04-03T18:22:37.07Z</time></trkpt><trkpt lat="41.9608831" lon="13.5371902"><ele>666.0</ele><time>2026-04-03T18:22:43.021Z</time></trkpt><trkpt lat="41.9608158" lon="13.5371834"><ele>666.0</ele><time>2026-04-03T18:22:48.119Z</time></trkpt><trkpt lat="41.9607452" lon="13.5371629"><ele>666.0</ele><time>2026-04-03T18:22:55.133Z</time></trkpt><trkpt lat="41.9606713" lon="13.5371121"><ele>666.0</ele><time>2026-04-03T18:23:04.102Z</time></trkpt><trkpt lat="41.9606065" lon="13.5371078"><ele>666.0</ele><time>2026-04-03T18:23:09.103Z</time></trkpt><trkpt lat="41.9605349" lon="13.5370967"><ele>666.0</ele><time>2026-04-03T18:23:16.131Z</time></trkpt><trkpt lat="41.9604541" lon="13.5370861"><ele>667.0</ele><time>2026-04-03T18:23:22.064Z</time></trkpt><trkpt lat="41.9603905" lon="13.5370969"><ele>668.0</ele><time>2026-04-03T18:23:28.082Z</time></trkpt><trkpt lat="41.9603199" lon="13.5371141"><ele>669.0</ele><time>2026-04-03T18:23:33.079Z</time></trkpt><trkpt lat="41.9602467" lon="13.5371455"><ele>670.0</ele><time>2026-04-03T18:23:39.082Z</time></trkpt><trkpt lat="41.9601803" lon="13.5371551"><ele>671.0</ele><time>2026-04-03T18:23:45.108Z</time></trkpt><trkpt lat="41.9600967" lon="13.5371352"><ele>672.0</ele><time>2026-04-03T18:23:52.087Z</time></trkpt><trkpt lat="41.960054" lon="13.5370619"><ele>673.0</ele><time>2026-04-03T18:23:57.11Z</time></trkpt><trkpt lat="41.9600563" lon="13.5369724"><ele>673.2857142857143</ele><time>2026-04-03T18:24:02.083Z</time></trkpt><trkpt lat="41.9600502" lon="13.5368748"><ele>673.5714285714286</ele><time>2026-04-03T18:24:07.092Z</time></trkpt><trkpt lat="41.960042" lon="13.5367778"><ele>673.8571428571429</ele><time>2026-04-03T18:24:13.086Z</time></trkpt><trkpt lat="41.9600393" lon="13.5366805"><ele>674.1428571428571</ele><time>2026-04-03T18:24:19.134Z</time></trkpt><trkpt lat="41.9600172" lon="13.5365964"><ele>674.4285714285714</ele><time>2026-04-03T18:24:26.112Z</time></trkpt><trkpt lat="41.9599546" lon="13.536575"><ele>674.7142857142857</ele><time>2026-04-03T18:24:32.094Z</time></trkpt><trkpt lat="41.9598966" lon="13.5365254"><ele>675.0</ele><time>2026-04-03T18:24:37.069Z</time></trkpt><trkpt lat="41.9598418" lon="13.5364797"><ele>676.2857142857142</ele><time>2026-04-03T18:24:42.082Z</time></trkpt><trkpt lat="41.9597833" lon="13.5364329"><ele>677.5714285714286</ele><time>2026-04-03T18:24:48.085Z</time></trkpt><trkpt lat="41.9597113" lon="13.5364107"><ele>678.8571428571429</ele><time>2026-04-03T18:24:55.085Z</time></trkpt><trkpt lat="41.9596476" lon="13.5364199"><ele>680.1428571428571</ele><time>2026-04-03T18:25:00.083Z</time></trkpt><trkpt lat="41.9595816" lon="13.5364509"><ele>681.4285714285714</ele><time>2026-04-03T18:25:07.018Z</time></trkpt><trkpt lat="41.9595099" lon="13.5364398"><ele>682.7142857142857</ele><time>2026-04-03T18:25:11.083Z</time></trkpt><trkpt lat="41.9594451" lon="13.5364699"><ele>684.0</ele><time>2026-04-03T18:25:17.009Z</time></trkpt><trkpt lat="41.9593734" lon="13.5364645"><ele>683.9999999999999</ele><time>2026-04-03T18:25:23.082Z</time></trkpt><trkpt lat="41.9593025" lon="13.5364914"><ele>684.0</ele><time>2026-04-03T18:25:29.069Z</time></trkpt><trkpt lat="41.9592354" lon="13.5365133"><ele>684.0</ele><time>2026-04-03T18:25:35.083Z</time></trkpt><trkpt lat="41.9591647" lon="13.5365085"><ele>684.0</ele><time>2026-04-03T18:25:41.082Z</time></trkpt><trkpt lat="41.9591199" lon="13.5364334"><ele>684.0</ele><time>2026-04-03T18:25:48.084Z</time></trkpt><trkpt lat="41.9590539" lon="13.5364402"><ele>683.9999999999999</ele><time>2026-04-03T18:25:53.07Z</time></trkpt><trkpt lat="41.9589834" lon="13.5364417"><ele>684.0</ele><time>2026-04-03T18:25:59.083Z</time></trkpt><trkpt lat="41.9589057" lon="13.5364463"><ele>684.1428571428571</ele><time>2026-04-03T18:26:06.136Z</time></trkpt><trkpt lat="41.9588584" lon="13.5365061"><ele>684.2857142857142</ele><time>2026-04-03T18:26:13.083Z</time></trkpt><trkpt lat="41.95878" lon="13.5365322"><ele>684.4285714285713</ele><time>2026-04-03T18:26:20.098Z</time></trkpt><trkpt lat="41.958714" lon="13.5365258"><ele>684.5714285714286</ele><time>2026-04-03T18:26:25.088Z</time></trkpt><trkpt lat="41.9586224" lon="13.5365068"><ele>684.7142857142858</ele><time>2026-04-03T18:26:31.007Z</time></trkpt><trkpt lat="41.9585564" lon="13.5364951"><ele>684.8571428571428</ele><time>2026-04-03T18:26:35.114Z</time></trkpt><trkpt lat="41.9584865" lon="13.5364935"><ele>685.0</ele><time>2026-04-03T18:26:40.083Z</time></trkpt><trkpt lat="41.9584134" lon="13.5365124"><ele>685.2857142857142</ele><time>2026-04-03T18:26:45.004Z</time></trkpt><trkpt lat="41.9583424" lon="13.5365247"><ele>685.5714285714287</ele><time>2026-04-03T18:26:50.109Z</time></trkpt><trkpt lat="41.9582792" lon="13.5365345"><ele>685.8571428571429</ele><time>2026-04-03T18:26:55.062Z</time></trkpt><trkpt lat="41.9582103" lon="13.5365424"><ele>686.1428571428571</ele><time>2026-04-03T18:27:01.07Z</time></trkpt><trkpt lat="41.9581474" lon="13.5365595"><ele>686.4285714285713</ele><time>2026-04-03T18:27:06.098Z</time></trkpt><trkpt lat="41.9580774" lon="13.5365527"><ele>686.7142857142858</ele><time>2026-04-03T18:27:11.977Z</time></trkpt><trkpt lat="41.9580052" lon="13.5365686"><ele>687.0</ele><time>2026-04-03T18:27:20.077Z</time></trkpt><trkpt lat="41.9579294" lon="13.5365791"><ele>687.0</ele><time>2026-04-03T18:27:26.098Z</time></trkpt><trkpt lat="41.9578659" lon="13.5366219"><ele>687.0</ele><time>2026-04-03T18:27:32.105Z</time></trkpt><trkpt lat="41.9578042" lon="13.5366608"><ele>687.0</ele><time>2026-04-03T18:27:38.069Z</time></trkpt><trkpt lat="41.9577275" lon="13.5366909"><ele>687.0</ele><time>2026-04-03T18:27:44.069Z</time></trkpt><trkpt lat="41.9576614" lon="13.5366945"><ele>687.0</ele><time>2026-04-03T18:27:50.069Z</time></trkpt><trkpt lat="41.9575943" lon="13.5366731"><ele>687.0</ele><time>2026-04-03T18:27:55.069Z</time></trkpt><trkpt lat="41.9575201" lon="13.5366724"><ele>687.0</ele><time>2026-04-03T18:28:01.121Z</time></trkpt><trkpt lat="41.9574703" lon="13.5367354"><ele>687.4285714285714</ele><time>2026-04-03T18:28:07.07Z</time></trkpt><trkpt lat="41.9574292" lon="13.536821"><ele>687.8571428571428</ele><time>2026-04-03T18:28:14.081Z</time></trkpt><trkpt lat="41.9573627" lon="13.53684"><ele>688.2857142857142</ele><time>2026-04-03T18:28:20.104Z</time></trkpt><trkpt lat="41.9572971" lon="13.5368421"><ele>688.7142857142858</ele><time>2026-04-03T18:28:24.1Z</time></trkpt><trkpt lat="41.9572319" lon="13.5367936"><ele>689.1428571428571</ele><time>2026-04-03T18:28:29.086Z</time></trkpt><trkpt lat="41.957189" lon="13.5367267"><ele>689.5714285714286</ele><time>2026-04-03T18:28:33.089Z</time></trkpt><trkpt lat="41.9571216" lon="13.5367084"><ele>690.0</ele><time>2026-04-03T18:28:39.134Z</time></trkpt><trkpt lat="41.9570544" lon="13.5367512"><ele>690.0</ele><time>2026-04-03T18:28:45.124Z</time></trkpt><trkpt lat="41.9569847" lon="13.5367346"><ele>690.0</ele><time>2026-04-03T18:30:11.028Z</time></trkpt><trkpt lat="41.956925" lon="13.5367665"><ele>690.0</ele><time>2026-04-03T18:30:18.069Z</time></trkpt><trkpt lat="41.9569229" lon="13.5368593"><ele>690.0</ele><time>2026-04-03T18:30:23.087Z</time></trkpt><trkpt lat="41.9569465" lon="13.5369383"><ele>690.0</ele><time>2026-04-03T18:30:27.111Z</time></trkpt><trkpt lat="41.9569896" lon="13.5370078"><ele>690.0</ele><time>2026-04-03T18:30:32.103Z</time></trkpt><trkpt lat="41.9570273" lon="13.5370942"><ele>690.0</ele><time>2026-04-03T18:30:38.083Z</time></trkpt><trkpt lat="41.9570574" lon="13.5371824"><ele>689.8571428571429</ele><time>2026-04-03T18:30:44.086Z</time></trkpt><trkpt lat="41.9570911" lon="13.5372692"><ele>689.7142857142857</ele><time>2026-04-03T18:30:49.864Z</time></trkpt><trkpt lat="41.9571243" lon="13.5373565"><ele>689.5714285714286</ele><time>2026-04-03T18:30:56.127Z</time></trkpt><trkpt lat="41.9571607" lon="13.5374257"><ele>689.4285714285714</ele><time>2026-04-03T18:31:03.069Z</time></trkpt><trkpt lat="41.9571842" lon="13.5375143"><ele>689.2857142857143</ele><time>2026-04-03T18:31:08.069Z</time></trkpt><trkpt lat="41.9571796" lon="13.537609"><ele>689.1428571428571</ele><time>2026-04-03T18:31:13.09Z</time></trkpt><trkpt lat="41.9572054" lon="13.5376953"><ele>689.0</ele><time>2026-04-03T18:31:18.959Z</time></trkpt><trkpt lat="41.9572143" lon="13.5377973"><ele>689.0</ele><time>2026-04-03T18:31:24.902Z</time></trkpt><trkpt lat="41.9572457" lon="13.5378788"><ele>689.0</ele><time>2026-04-03T18:31:32.083Z</time></trkpt><trkpt lat="41.9573225" lon="13.5378997"><ele>689.0</ele><time>2026-04-03T18:31:36.881Z</time></trkpt><trkpt lat="41.9573853" lon="13.5379114"><ele>689.0</ele><time>2026-04-03T18:31:41.113Z</time></trkpt><trkpt lat="41.9574619" lon="13.5378853"><ele>689.0</ele><time>2026-04-03T18:31:46.113Z</time></trkpt><trkpt lat="41.9575218" lon="13.5378282"><ele>689.0</ele><time>2026-04-03T18:31:51.101Z</time></trkpt><trkpt lat="41.9575843" lon="13.5377803"><ele>689.0</ele><time>2026-04-03T18:31:57.078Z</time></trkpt><trkpt lat="41.9576475" lon="13.5377552"><ele>688.8571428571429</ele><time>2026-04-03T18:32:02.096Z</time></trkpt><trkpt lat="41.9577175" lon="13.5377392"><ele>688.7142857142858</ele><time>2026-04-03T18:32:08.161Z</time></trkpt><trkpt lat="41.9577895" lon="13.5377198"><ele>688.5714285714287</ele><time>2026-04-03T18:32:15.115Z</time></trkpt><trkpt lat="41.9578614" lon="13.5377211"><ele>688.4285714285714</ele><time>2026-04-03T18:32:22.099Z</time></trkpt><trkpt lat="41.9579263" lon="13.5377371"><ele>688.2857142857143</ele><time>2026-04-03T18:32:29.099Z</time></trkpt><trkpt lat="41.957991" lon="13.5377515"><ele>688.1428571428572</ele><time>2026-04-03T18:32:35.061Z</time></trkpt><trkpt lat="41.9580616" lon="13.5377242"><ele>688.0</ele><time>2026-04-03T18:32:41.085Z</time></trkpt><trkpt lat="41.9581238" lon="13.5377098"><ele>688.0000000000001</ele><time>2026-04-03T18:32:46.094Z</time></trkpt><trkpt lat="41.9581921" lon="13.537707"><ele>688.0</ele><time>2026-04-03T18:32:52.083Z</time></trkpt><trkpt lat="41.958257" lon="13.5377294"><ele>688.0</ele><time>2026-04-03T18:32:58.069Z</time></trkpt><trkpt lat="41.9583224" lon="13.5377203"><ele>688.0</ele><time>2026-04-03T18:33:04.101Z</time></trkpt><trkpt lat="41.95839" lon="13.5377005"><ele>688.0</ele><time>2026-04-03T18:33:09.113Z</time></trkpt><trkpt lat="41.958457" lon="13.537673"><ele>688.0000000000001</ele><time>2026-04-03T18:33:15.104Z</time></trkpt><trkpt lat="41.9585238" lon="13.5376602"><ele>688.0</ele><time>2026-04-03T18:33:20.084Z</time></trkpt><trkpt lat="41.9585973" lon="13.5376354"><ele>687.5714285714287</ele><time>2026-04-03T18:33:26.109Z</time></trkpt><trkpt lat="41.9586712" lon="13.5376172"><ele>687.1428571428571</ele><time>2026-04-03T18:33:32.082Z</time></trkpt><trkpt lat="41.9587514" lon="13.537616"><ele>686.7142857142858</ele><time>2026-04-03T18:33:39.092Z</time></trkpt><trkpt lat="41.9588183" lon="13.5375864"><ele>686.2857142857143</ele><time>2026-04-03T18:33:47.096Z</time></trkpt><trkpt lat="41.9588796" lon="13.5375649"><ele>685.8571428571429</ele><time>2026-04-03T18:33:54.04Z</time></trkpt><trkpt lat="41.95894" lon="13.5375407"><ele>685.4285714285714</ele><time>2026-04-03T18:33:59.103Z</time></trkpt><trkpt lat="41.9590062" lon="13.5375185"><ele>685.0</ele><time>2026-04-03T18:34:04.083Z</time></trkpt><trkpt lat="41.9590878" lon="13.5375169"><ele>685.0</ele><time>2026-04-03T18:34:10.149Z</time></trkpt><trkpt lat="41.9591563" lon="13.5375116"><ele>685.0</ele><time>2026-04-03T18:34:16.959Z</time></trkpt><trkpt lat="41.9592187" lon="13.537482"><ele>685.0</ele><time>2026-04-03T18:34:22.07Z</time></trkpt><trkpt lat="41.9592811" lon="13.5374575"><ele>685.0</ele><time>2026-04-03T18:34:27.16Z</time></trkpt><trkpt lat="41.9593498" lon="13.5374279"><ele>685.0</ele><time>2026-04-03T18:34:33.111Z</time></trkpt><trkpt lat="41.9594223" lon="13.5374209"><ele>685.0</ele><time>2026-04-03T18:34:39.158Z</time></trkpt><trkpt lat="41.9594826" lon="13.5374652"><ele>685.0</ele><time>2026-04-03T18:34:45.07Z</time></trkpt><trkpt lat="41.959549" lon="13.5374791"><ele>684.4285714285714</ele><time>2026-04-03T18:34:50.109Z</time></trkpt><trkpt lat="41.9596214" lon="13.5375056"><ele>683.8571428571429</ele><time>2026-04-03T18:34:55.135Z</time></trkpt><trkpt lat="41.9596886" lon="13.5375141"><ele>683.2857142857143</ele><time>2026-04-03T18:35:01.069Z</time></trkpt><trkpt lat="41.9597573" lon="13.5375053"><ele>682.7142857142858</ele><time>2026-04-03T18:35:07.143Z</time></trkpt><trkpt lat="41.9598227" lon="13.5374704"><ele>682.1428571428571</ele><time>2026-04-03T18:35:15.114Z</time></trkpt><trkpt lat="41.9598966" lon="13.5374752"><ele>681.5714285714287</ele><time>2026-04-03T18:35:21.122Z</time></trkpt><trkpt lat="41.9599638" lon="13.5374395"><ele>681.0</ele><time>2026-04-03T18:35:28.112Z</time></trkpt><trkpt lat="41.9599945" lon="13.5373607"><ele>681.0000000000001</ele><time>2026-04-03T18:35:33.11Z</time></trkpt><trkpt lat="41.9600139" lon="13.5372743"><ele>681.0</ele><time>2026-04-03T18:35:38.125Z</time></trkpt><trkpt lat="41.9600186" lon="13.5371866"><ele>681.0</ele><time>2026-04-03T18:35:42.1Z</time></trkpt><trkpt lat="41.9600388" lon="13.537099"><ele>681.0</ele><time>2026-04-03T18:35:49.07Z</time></trkpt><trkpt lat="41.960108" lon="13.5370804"><ele>681.0</ele><time>2026-04-03T18:35:57.085Z</time></trkpt><trkpt lat="41.9601905" lon="13.5371064"><ele>681.0000000000001</ele><time>2026-04-03T18:36:04.104Z</time></trkpt><trkpt lat="41.9602554" lon="13.5371132"><ele>681.0</ele><time>2026-04-03T18:36:09.04Z</time></trkpt><trkpt lat="41.960329" lon="13.5371261"><ele>679.8571428571429</ele><time>2026-04-03T18:36:15.082Z</time></trkpt><trkpt lat="41.9603907" lon="13.5371448"><ele>678.7142857142858</ele><time>2026-04-03T18:36:19.109Z</time></trkpt><trkpt lat="41.9604528" lon="13.5371623"><ele>677.5714285714287</ele><time>2026-04-03T18:36:24.004Z</time></trkpt><trkpt lat="41.9605158" lon="13.5371561"><ele>676.4285714285714</ele><time>2026-04-03T18:36:34.109Z</time></trkpt><trkpt lat="41.9605806" lon="13.5371495"><ele>675.2857142857142</ele><time>2026-04-03T18:36:39.129Z</time></trkpt><trkpt lat="41.9606474" lon="13.5371349"><ele>674.1428571428572</ele><time>2026-04-03T18:36:45.948Z</time></trkpt><trkpt lat="41.960723" lon="13.5371382"><ele>673.0</ele><time>2026-04-03T18:36:53.082Z</time></trkpt><trkpt lat="41.9607871" lon="13.5371322"><ele>673.0</ele><time>2026-04-03T18:36:59.962Z</time></trkpt><trkpt lat="41.9608623" lon="13.5371242"><ele>673.0</ele><time>2026-04-03T18:37:07.098Z</time></trkpt><trkpt lat="41.9609372" lon="13.5371301"><ele>673.0</ele><time>2026-04-03T18:37:11.159Z</time></trkpt><trkpt lat="41.9609984" lon="13.5371584"><ele>673.0</ele><time>2026-04-03T18:37:14.926Z</time></trkpt><trkpt lat="41.9610572" lon="13.5372081"><ele>673.0</ele><time>2026-04-03T18:37:21.095Z</time></trkpt><trkpt lat="41.9611216" lon="13.5372381"><ele>673.0</ele><time>2026-04-03T18:37:28.101Z</time></trkpt><trkpt lat="41.9611905" lon="13.5372138"><ele>673.0</ele><time>2026-04-03T18:37:34.109Z</time></trkpt><trkpt lat="41.9612016" lon="13.5371148"><ele>672.0</ele><time>2026-04-03T18:37:39.114Z</time></trkpt><trkpt lat="41.9612138" lon="13.5370131"><ele>671.0</ele><time>2026-04-03T18:37:46.082Z</time></trkpt><trkpt lat="41.9612312" lon="13.5369128"><ele>670.0</ele><time>2026-04-03T18:37:53.115Z</time></trkpt><trkpt lat="41.9612452" lon="13.5368273"><ele>669.0</ele><time>2026-04-03T18:37:58.964Z</time></trkpt><trkpt lat="41.9612393" lon="13.5367351"><ele>668.0</ele><time>2026-04-03T18:38:05.069Z</time></trkpt><trkpt lat="41.9612516" lon="13.536637"><ele>667.0</ele><time>2026-04-03T18:38:11.097Z</time></trkpt><trkpt lat="41.9612588" lon="13.536542"><ele>666.0</ele><time>2026-04-03T18:38:17.089Z</time></trkpt><trkpt lat="41.9612711" lon="13.5364431"><ele>666.0</ele><time>2026-04-03T18:38:23.082Z</time></trkpt><trkpt lat="41.9612911" lon="13.5363321"><ele>666.0</ele><time>2026-04-03T18:38:30.069Z</time></trkpt></trkseg></trk></gpx>